sensor_id;sensor_type;location;lat;lon;timestamp;P1;durP1;ratioP1;P2;durP2;ratioP2
31638;SDS011;18248;51.522;7.020;2022-07-18T00:00:39;11.15;;;2.55;;
31638;SDS011;18248;51.522;7.020;2022-07-18T00:03:38;7.40;;;2.78;;
31638;SDS011;18248;51.522;7.020;2022-07-18T00:06:38;6.97;;;2.13;;
31638;SDS011;18248;51.522;7.020;2022-07-18T00:09:37;6.25;;;2.30;;
31638;SDS011;18248;51.522;7.020;2022-07-18T00:12:36;7.03;;;2.30;;
31638;SDS011;18248;51.522;7.020;2022-07-18T00:15:34;6.78;;;1.83;;
31638;SDS011;18248;51.522;7.020;2022-07-18T00:18:34;8.52;;;2.50;;
31638;SDS011;18248;51.522;7.020;2022-07-18T00:21:33;6.72;;;2.38;;
31638;SDS011;18248;51.522;7.020;2022-07-18T00:24:32;10.75;;;2.40;;
31638;SDS011;18248;51.522;7.020;2022-07-18T00:27:32;7.50;;;2.45;;
31638;SDS011;18248;51.522;7.020;2022-07-18T00:30:31;5.80;;;2.22;;
31638;SDS011;18248;51.522;7.020;2022-07-18T00:33:30;8.10;;;2.40;;
31638;SDS011;18248;51.522;7.020;2022-07-18T00:36:29;8.38;;;2.65;;
31638;SDS011;18248;51.522;7.020;2022-07-18T00:39:28;9.13;;;2.67;;
31638;SDS011;18248;51.522;7.020;2022-07-18T00:42:27;8.70;;;2.88;;
31638;SDS011;18248;51.522;7.020;2022-07-18T00:45:25;5.20;;;1.98;;
31638;SDS011;18248;51.522;7.020;2022-07-18T00:48:25;7.50;;;2.40;;
31638;SDS011;18248;51.522;7.020;2022-07-18T00:51:23;4.70;;;2.42;;
31638;SDS011;18248;51.522;7.020;2022-07-18T00:54:22;4.53;;;2.10;;
31638;SDS011;18248;51.522;7.020;2022-07-18T00:57:21;10.02;;;3.28;;
31638;SDS011;18248;51.522;7.020;2022-07-18T01:00:19;7.97;;;2.70;;
31638;SDS011;18248;51.522;7.020;2022-07-18T01:03:37;5.13;;;2.28;;
31638;SDS011;18248;51.522;7.020;2022-07-18T01:06:35;7.13;;;2.75;;
31638;SDS011;18248;51.522;7.020;2022-07-18T01:09:35;7.55;;;2.70;;
31638;SDS011;18248;51.522;7.020;2022-07-18T01:12:34;7.03;;;2.50;;
31638;SDS011;18248;51.522;7.020;2022-07-18T01:15:32;4.68;;;2.20;;
31638;SDS011;18248;51.522;7.020;2022-07-18T01:18:31;4.80;;;2.30;;
31638;SDS011;18248;51.522;7.020;2022-07-18T01:21:30;10.63;;;2.83;;
31638;SDS011;18248;51.522;7.020;2022-07-18T01:24:29;8.93;;;2.90;;
31638;SDS011;18248;51.522;7.020;2022-07-18T01:27:28;10.00;;;3.53;;
31638;SDS011;18248;51.522;7.020;2022-07-18T01:30:26;8.63;;;2.92;;
31638;SDS011;18248;51.522;7.020;2022-07-18T01:33:25;10.55;;;2.85;;
31638;SDS011;18248;51.522;7.020;2022-07-18T01:36:23;10.77;;;3.58;;
31638;SDS011;18248;51.522;7.020;2022-07-18T01:39:22;14.10;;;3.85;;
31638;SDS011;18248;51.522;7.020;2022-07-18T01:42:20;7.30;;;3.00;;
31638;SDS011;18248;51.522;7.020;2022-07-18T01:45:20;4.68;;;2.70;;
31638;SDS011;18248;51.522;7.020;2022-07-18T01:48:18;12.88;;;3.65;;
31638;SDS011;18248;51.522;7.020;2022-07-18T01:51:18;6.80;;;2.95;;
31638;SDS011;18248;51.522;7.020;2022-07-18T01:54:19;7.63;;;3.30;;
31638;SDS011;18248;51.522;7.020;2022-07-18T01:57:18;5.70;;;2.97;;
31638;SDS011;18248;51.522;7.020;2022-07-18T02:00:17;7.50;;;3.17;;
31638;SDS011;18248;51.522;7.020;2022-07-18T02:03:15;11.60;;;3.20;;
31638;SDS011;18248;51.522;7.020;2022-07-18T02:06:14;9.73;;;3.75;;
31638;SDS011;18248;51.522;7.020;2022-07-18T02:09:12;12.32;;;3.70;;
31638;SDS011;18248;51.522;7.020;2022-07-18T02:12:11;8.70;;;2.67;;
31638;SDS011;18248;51.522;7.020;2022-07-18T02:15:10;6.85;;;3.00;;
31638;SDS011;18248;51.522;7.020;2022-07-18T02:18:10;7.07;;;3.10;;
31638;SDS011;18248;51.522;7.020;2022-07-18T02:21:09;4.68;;;2.40;;
31638;SDS011;18248;51.522;7.020;2022-07-18T02:24:08;13.07;;;2.97;;
31638;SDS011;18248;51.522;7.020;2022-07-18T02:27:06;9.93;;;3.25;;
31638;SDS011;18248;51.522;7.020;2022-07-18T02:30:07;13.18;;;3.17;;
31638;SDS011;18248;51.522;7.020;2022-07-18T02:33:06;10.60;;;2.72;;
31638;SDS011;18248;51.522;7.020;2022-07-18T02:36:04;10.10;;;3.63;;
31638;SDS011;18248;51.522;7.020;2022-07-18T02:39:04;9.60;;;3.45;;
31638;SDS011;18248;51.522;7.020;2022-07-18T02:42:04;15.32;;;3.50;;
31638;SDS011;18248;51.522;7.020;2022-07-18T02:45:05;6.25;;;3.35;;
31638;SDS011;18248;51.522;7.020;2022-07-18T02:48:05;11.25;;;3.30;;
31638;SDS011;18248;51.522;7.020;2022-07-18T02:51:04;7.78;;;2.60;;
31638;SDS011;18248;51.522;7.020;2022-07-18T02:54:02;10.07;;;2.97;;
31638;SDS011;18248;51.522;7.020;2022-07-18T02:57:01;6.07;;;2.83;;
31638;SDS011;18248;51.522;7.020;2022-07-18T03:00:01;10.07;;;3.33;;
31638;SDS011;18248;51.522;7.020;2022-07-18T03:03:02;6.43;;;2.92;;
31638;SDS011;18248;51.522;7.020;2022-07-18T03:06:00;6.25;;;2.45;;
31638;SDS011;18248;51.522;7.020;2022-07-18T03:08:59;4.55;;;2.40;;
31638;SDS011;18248;51.522;7.020;2022-07-18T03:11:57;10.07;;;2.90;;
31638;SDS011;18248;51.522;7.020;2022-07-18T03:14:56;14.95;;;3.75;;
31638;SDS011;18248;51.522;7.020;2022-07-18T03:17:54;10.43;;;3.75;;
31638;SDS011;18248;51.522;7.020;2022-07-18T03:20:53;10.07;;;3.17;;
31638;SDS011;18248;51.522;7.020;2022-07-18T03:23:52;17.42;;;4.40;;
31638;SDS011;18248;51.522;7.020;2022-07-18T03:26:51;11.25;;;3.17;;
31638;SDS011;18248;51.522;7.020;2022-07-18T03:29:49;12.00;;;3.58;;
31638;SDS011;18248;51.522;7.020;2022-07-18T03:32:48;11.20;;;4.03;;
31638;SDS011;18248;51.522;7.020;2022-07-18T03:35:46;11.60;;;3.67;;
31638;SDS011;18248;51.522;7.020;2022-07-18T03:38:46;10.95;;;4.00;;
31638;SDS011;18248;51.522;7.020;2022-07-18T03:41:45;7.28;;;3.40;;
31638;SDS011;18248;51.522;7.020;2022-07-18T03:44:43;6.72;;;2.85;;
31638;SDS011;18248;51.522;7.020;2022-07-18T03:47:43;12.07;;;3.22;;
31638;SDS011;18248;51.522;7.020;2022-07-18T03:50:42;4.60;;;2.67;;
31638;SDS011;18248;51.522;7.020;2022-07-18T03:53:40;12.98;;;3.83;;
31638;SDS011;18248;51.522;7.020;2022-07-18T03:56:39;9.13;;;3.50;;
31638;SDS011;18248;51.522;7.020;2022-07-18T03:59:38;7.82;;;2.90;;
31638;SDS011;18248;51.522;7.020;2022-07-18T04:02:44;7.75;;;2.80;;
31638;SDS011;18248;51.522;7.020;2022-07-18T04:05:44;8.90;;;2.63;;
31638;SDS011;18248;51.522;7.020;2022-07-18T04:08:43;11.55;;;3.45;;
31638;SDS011;18248;51.522;7.020;2022-07-18T04:11:41;7.93;;;3.42;;
31638;SDS011;18248;51.522;7.020;2022-07-18T04:14:40;8.07;;;2.80;;
31638;SDS011;18248;51.522;7.020;2022-07-18T04:17:38;11.38;;;3.65;;
31638;SDS011;18248;51.522;7.020;2022-07-18T04:20:37;7.53;;;3.22;;
31638;SDS011;18248;51.522;7.020;2022-07-18T04:23:36;6.40;;;2.80;;
31638;SDS011;18248;51.522;7.020;2022-07-18T04:26:35;16.17;;;3.60;;
31638;SDS011;18248;51.522;7.020;2022-07-18T04:29:33;11.63;;;3.53;;
31638;SDS011;18248;51.522;7.020;2022-07-18T04:32:35;10.82;;;3.50;;
31638;SDS011;18248;51.522;7.020;2022-07-18T04:35:34;9.05;;;3.55;;
31638;SDS011;18248;51.522;7.020;2022-07-18T04:38:33;8.70;;;3.42;;
31638;SDS011;18248;51.522;7.020;2022-07-18T04:41:35;9.70;;;4.25;;
31638;SDS011;18248;51.522;7.020;2022-07-18T04:44:33;12.80;;;3.67;;
31638;SDS011;18248;51.522;7.020;2022-07-18T04:47:32;12.98;;;4.05;;
31638;SDS011;18248;51.522;7.020;2022-07-18T04:50:31;10.40;;;3.92;;
31638;SDS011;18248;51.522;7.020;2022-07-18T04:53:29;12.10;;;3.47;;
31638;SDS011;18248;51.522;7.020;2022-07-18T04:56:28;18.55;;;3.50;;
31638;SDS011;18248;51.522;7.020;2022-07-18T04:59:26;17.17;;;3.70;;
31638;SDS011;18248;51.522;7.020;2022-07-18T05:02:25;12.88;;;3.80;;
31638;SDS011;18248;51.522;7.020;2022-07-18T05:05:24;13.02;;;3.95;;
31638;SDS011;18248;51.522;7.020;2022-07-18T05:08:25;18.20;;;3.05;;
31638;SDS011;18248;51.522;7.020;2022-07-18T05:11:25;18.75;;;3.50;;
31638;SDS011;18248;51.522;7.020;2022-07-18T05:14:24;11.82;;;3.80;;
31638;SDS011;18248;51.522;7.020;2022-07-18T05:17:22;16.20;;;4.25;;
31638;SDS011;18248;51.522;7.020;2022-07-18T05:20:21;8.90;;;3.28;;
31638;SDS011;18248;51.522;7.020;2022-07-18T05:23:21;15.30;;;4.35;;
31638;SDS011;18248;51.522;7.020;2022-07-18T05:26:23;13.98;;;3.97;;
31638;SDS011;18248;51.522;7.020;2022-07-18T05:29:21;10.75;;;3.95;;
31638;SDS011;18248;51.522;7.020;2022-07-18T05:32:20;12.48;;;4.28;;
31638;SDS011;18248;51.522;7.020;2022-07-18T05:35:19;17.33;;;4.80;;
31638;SDS011;18248;51.522;7.020;2022-07-18T05:38:18;12.88;;;3.50;;
31638;SDS011;18248;51.522;7.020;2022-07-18T05:41:16;21.88;;;4.00;;
31638;SDS011;18248;51.522;7.020;2022-07-18T05:44:15;16.95;;;4.32;;
31638;SDS011;18248;51.522;7.020;2022-07-18T05:47:13;17.00;;;4.53;;
31638;SDS011;18248;51.522;7.020;2022-07-18T05:50:12;11.13;;;3.70;;
31638;SDS011;18248;51.522;7.020;2022-07-18T05:53:11;13.65;;;3.55;;
31638;SDS011;18248;51.522;7.020;2022-07-18T05:56:10;12.18;;;3.67;;
31638;SDS011;18248;51.522;7.020;2022-07-18T05:59:08;10.93;;;3.38;;
31638;SDS011;18248;51.522;7.020;2022-07-18T06:02:07;8.77;;;2.85;;
31638;SDS011;18248;51.522;7.020;2022-07-18T06:05:06;15.55;;;3.50;;
31638;SDS011;18248;51.522;7.020;2022-07-18T06:08:05;15.30;;;3.05;;
31638;SDS011;18248;51.522;7.020;2022-07-18T06:11:04;16.60;;;3.33;;
31638;SDS011;18248;51.522;7.020;2022-07-18T06:14:04;7.50;;;2.85;;
31638;SDS011;18248;51.522;7.020;2022-07-18T06:20:47;15.07;;;2.80;;
31638;SDS011;18248;51.522;7.020;2022-07-18T06:24:15;10.45;;;2.45;;
31638;SDS011;18248;51.522;7.020;2022-07-18T06:27:14;13.20;;;2.25;;
31638;SDS011;18248;51.522;7.020;2022-07-18T06:30:12;5.90;;;2.08;;
31638;SDS011;18248;51.522;7.020;2022-07-18T06:33:11;14.55;;;2.25;;
31638;SDS011;18248;51.522;7.020;2022-07-18T06:36:11;10.35;;;2.30;;
31638;SDS011;18248;51.522;7.020;2022-07-18T06:39:11;11.05;;;2.20;;
31638;SDS011;18248;51.522;7.020;2022-07-18T06:42:10;12.93;;;1.85;;
31638;SDS011;18248;51.522;7.020;2022-07-18T06:45:09;9.30;;;1.92;;
31638;SDS011;18248;51.522;7.020;2022-07-18T06:48:08;8.40;;;2.00;;
31638;SDS011;18248;51.522;7.020;2022-07-18T06:51:08;8.10;;;2.10;;
31638;SDS011;18248;51.522;7.020;2022-07-18T06:54:06;11.18;;;2.35;;
31638;SDS011;18248;51.522;7.020;2022-07-18T06:57:05;10.50;;;2.20;;
31638;SDS011;18248;51.522;7.020;2022-07-18T07:00:07;5.47;;;1.67;;
31638;SDS011;18248;51.522;7.020;2022-07-18T07:03:07;8.00;;;1.85;;
31638;SDS011;18248;51.522;7.020;2022-07-18T07:06:06;8.50;;;1.67;;
31638;SDS011;18248;51.522;7.020;2022-07-18T07:09:04;6.70;;;2.08;;
31638;SDS011;18248;51.522;7.020;2022-07-18T07:12:03;5.82;;;1.65;;
31638;SDS011;18248;51.522;7.020;2022-07-18T07:15:02;5.18;;;1.75;;
31638;SDS011;18248;51.522;7.020;2022-07-18T07:18:01;11.70;;;1.52;;
31638;SDS011;18248;51.522;7.020;2022-07-18T07:20:59;11.38;;;1.77;;
31638;SDS011;18248;51.522;7.020;2022-07-18T07:23:58;6.60;;;1.40;;
31638;SDS011;18248;51.522;7.020;2022-07-18T07:26:57;12.30;;;1.80;;
31638;SDS011;18248;51.522;7.020;2022-07-18T07:29:55;4.93;;;1.63;;
31638;SDS011;18248;51.522;7.020;2022-07-18T07:32:54;5.40;;;1.50;;
31638;SDS011;18248;51.522;7.020;2022-07-18T07:35:52;3.72;;;1.40;;
31638;SDS011;18248;51.522;7.020;2022-07-18T07:38:51;6.20;;;1.30;;
31638;SDS011;18248;51.522;7.020;2022-07-18T07:41:49;6.00;;;1.77;;
31638;SDS011;18248;51.522;7.020;2022-07-18T07:44:48;5.88;;;1.30;;
31638;SDS011;18248;51.522;7.020;2022-07-18T07:47:47;8.77;;;1.48;;
31638;SDS011;18248;51.522;7.020;2022-07-18T07:50:47;5.28;;;1.23;;
31638;SDS011;18248;51.522;7.020;2022-07-18T07:53:45;9.98;;;1.70;;
31638;SDS011;18248;51.522;7.020;2022-07-18T07:56:44;6.57;;;1.30;;
31638;SDS011;18248;51.522;7.020;2022-07-18T07:59:42;8.70;;;1.60;;
31638;SDS011;18248;51.522;7.020;2022-07-18T08:02:54;7.90;;;1.70;;
31638;SDS011;18248;51.522;7.020;2022-07-18T08:05:59;8.75;;;1.50;;
31638;SDS011;18248;51.522;7.020;2022-07-18T08:08:57;8.57;;;1.48;;
31638;SDS011;18248;51.522;7.020;2022-07-18T08:11:59;8.38;;;1.63;;
31638;SDS011;18248;51.522;7.020;2022-07-18T08:14:58;5.28;;;1.30;;
31638;SDS011;18248;51.522;7.020;2022-07-18T08:17:56;5.97;;;1.30;;
31638;SDS011;18248;51.522;7.020;2022-07-18T08:20:55;8.13;;;1.40;;
31638;SDS011;18248;51.522;7.020;2022-07-18T08:23:53;8.75;;;1.15;;
31638;SDS011;18248;51.522;7.020;2022-07-18T08:26:52;4.10;;;1.10;;
31638;SDS011;18248;51.522;7.020;2022-07-18T08:29:52;3.33;;;0.80;;
31638;SDS011;18248;51.522;7.020;2022-07-18T08:32:50;7.82;;;1.25;;
31638;SDS011;18248;51.522;7.020;2022-07-18T08:35:50;3.58;;;1.00;;
31638;SDS011;18248;51.522;7.020;2022-07-18T08:38:50;7.50;;;1.00;;
31638;SDS011;18248;51.522;7.020;2022-07-18T08:41:50;4.32;;;1.35;;
31638;SDS011;18248;51.522;7.020;2022-07-18T08:44:49;8.05;;;1.15;;
31638;SDS011;18248;51.522;7.020;2022-07-18T08:47:48;3.53;;;1.05;;
31638;SDS011;18248;51.522;7.020;2022-07-18T08:50:48;3.65;;;1.25;;
31638;SDS011;18248;51.522;7.020;2022-07-18T08:53:50;5.60;;;1.00;;
31638;SDS011;18248;51.522;7.020;2022-07-18T08:56:50;4.35;;;1.17;;
31638;SDS011;18248;51.522;7.020;2022-07-18T08:59:48;8.15;;;1.10;;
31638;SDS011;18248;51.522;7.020;2022-07-18T09:02:56;2.35;;;1.00;;
31638;SDS011;18248;51.522;7.020;2022-07-18T09:06:02;3.88;;;1.13;;
31638;SDS011;18248;51.522;7.020;2022-07-18T09:09:05;3.42;;;1.30;;
31638;SDS011;18248;51.522;7.020;2022-07-18T09:12:08;5.30;;;1.20;;
31638;SDS011;18248;51.522;7.020;2022-07-18T09:15:08;6.40;;;1.27;;
31638;SDS011;18248;51.522;7.020;2022-07-18T09:18:11;3.65;;;1.10;;
31638;SDS011;18248;51.522;7.020;2022-07-18T09:21:11;5.95;;;1.38;;
31638;SDS011;18248;51.522;7.020;2022-07-18T09:24:12;2.60;;;1.20;;
31638;SDS011;18248;51.522;7.020;2022-07-18T09:30:38;12.30;;;1.30;;
31638;SDS011;18248;51.522;7.020;2022-07-18T09:33:36;3.75;;;1.23;;
31638;SDS011;18248;51.522;7.020;2022-07-18T09:36:36;7.70;;;1.13;;
31638;SDS011;18248;51.522;7.020;2022-07-18T09:39:53;10.75;;;1.30;;
31638;SDS011;18248;51.522;7.020;2022-07-18T09:43:12;8.73;;;1.05;;
31638;SDS011;18248;51.522;7.020;2022-07-18T09:46:14;3.60;;;0.90;;
31638;SDS011;18248;51.522;7.020;2022-07-18T09:49:13;2.85;;;0.90;;
31638;SDS011;18248;51.522;7.020;2022-07-18T09:52:11;10.50;;;1.30;;
31638;SDS011;18248;51.522;7.020;2022-07-18T09:55:10;6.22;;;1.13;;
31638;SDS011;18248;51.522;7.020;2022-07-18T09:58:15;3.92;;;1.00;;
31638;SDS011;18248;51.522;7.020;2022-07-18T10:01:18;6.80;;;1.45;;
31638;SDS011;18248;51.522;7.020;2022-07-18T10:04:17;5.45;;;1.00;;
31638;SDS011;18248;51.522;7.020;2022-07-18T10:07:16;4.75;;;1.27;;
31638;SDS011;18248;51.522;7.020;2022-07-18T10:10:15;4.50;;;1.40;;
31638;SDS011;18248;51.522;7.020;2022-07-18T10:13:15;5.90;;;1.50;;
31638;SDS011;18248;51.522;7.020;2022-07-18T10:16:14;2.75;;;1.20;;
31638;SDS011;18248;51.522;7.020;2022-07-18T10:19:14;2.60;;;1.05;;
31638;SDS011;18248;51.522;7.020;2022-07-18T10:22:13;8.00;;;1.33;;
31638;SDS011;18248;51.522;7.020;2022-07-18T10:25:13;8.52;;;1.30;;
31638;SDS011;18248;51.522;7.020;2022-07-18T10:28:13;3.88;;;1.17;;
31638;SDS011;18248;51.522;7.020;2022-07-18T10:31:14;3.00;;;1.10;;
31638;SDS011;18248;51.522;7.020;2022-07-18T10:34:13;5.18;;;1.05;;
31638;SDS011;18248;51.522;7.020;2022-07-18T10:37:13;2.67;;;1.05;;
31638;SDS011;18248;51.522;7.020;2022-07-18T10:40:21;4.13;;;1.27;;
31638;SDS011;18248;51.522;7.020;2022-07-18T10:47:01;4.03;;;1.10;;
31638;SDS011;18248;51.522;7.020;2022-07-18T10:50:02;2.92;;;1.30;;
31638;SDS011;18248;51.522;7.020;2022-07-18T10:53:01;7.25;;;1.30;;
31638;SDS011;18248;51.522;7.020;2022-07-18T10:56:00;4.07;;;1.10;;
31638;SDS011;18248;51.522;7.020;2022-07-18T10:58:58;6.40;;;1.25;;
31638;SDS011;18248;51.522;7.020;2022-07-18T11:01:57;4.05;;;1.15;;
31638;SDS011;18248;51.522;7.020;2022-07-18T11:04:56;4.43;;;1.20;;
31638;SDS011;18248;51.522;7.020;2022-07-18T11:11:03;8.98;;;1.77;;
31638;SDS011;18248;51.522;7.020;2022-07-18T11:14:02;4.85;;;1.45;;
31638;SDS011;18248;51.522;7.020;2022-07-18T11:17:04;4.90;;;1.20;;
31638;SDS011;18248;51.522;7.020;2022-07-18T11:20:22;4.43;;;1.35;;
31638;SDS011;18248;51.522;7.020;2022-07-18T11:23:23;4.55;;;1.55;;
31638;SDS011;18248;51.522;7.020;2022-07-18T11:26:23;11.65;;;1.77;;
31638;SDS011;18248;51.522;7.020;2022-07-18T11:29:22;2.95;;;1.30;;
31638;SDS011;18248;51.522;7.020;2022-07-18T11:32:20;6.80;;;1.67;;
31638;SDS011;18248;51.522;7.020;2022-07-18T11:35:20;4.25;;;1.38;;
31638;SDS011;18248;51.522;7.020;2022-07-18T11:38:20;5.25;;;1.48;;
31638;SDS011;18248;51.522;7.020;2022-07-18T11:41:20;2.88;;;1.40;;
31638;SDS011;18248;51.522;7.020;2022-07-18T11:44:20;2.25;;;1.20;;
31638;SDS011;18248;51.522;7.020;2022-07-18T11:47:24;6.80;;;1.50;;
31638;SDS011;18248;51.522;7.020;2022-07-18T11:50:34;9.35;;;1.50;;
31638;SDS011;18248;51.522;7.020;2022-07-18T11:53:34;6.00;;;1.20;;
31638;SDS011;18248;51.522;7.020;2022-07-18T11:56:32;3.80;;;1.38;;
31638;SDS011;18248;51.522;7.020;2022-07-18T11:59:42;6.13;;;1.20;;
31638;SDS011;18248;51.522;7.020;2022-07-18T12:02:42;3.63;;;1.15;;
31638;SDS011;18248;51.522;7.020;2022-07-18T12:05:41;10.60;;;1.40;;
31638;SDS011;18248;51.522;7.020;2022-07-18T12:08:50;7.45;;;1.50;;
31638;SDS011;18248;51.522;7.020;2022-07-18T12:11:51;8.80;;;1.30;;
31638;SDS011;18248;51.522;7.020;2022-07-18T12:15:02;6.78;;;1.40;;
31638;SDS011;18248;51.522;7.020;2022-07-18T12:18:01;5.90;;;1.77;;
31638;SDS011;18248;51.522;7.020;2022-07-18T12:21:06;4.90;;;1.80;;
31638;SDS011;18248;51.522;7.020;2022-07-18T12:24:18;2.78;;;1.30;;
31638;SDS011;18248;51.522;7.020;2022-07-18T12:30:25;9.45;;;2.15;;
31638;SDS011;18248;51.522;7.020;2022-07-18T12:33:25;10.95;;;1.90;;
31638;SDS011;18248;51.522;7.020;2022-07-18T12:36:24;8.63;;;2.50;;
31638;SDS011;18248;51.522;7.020;2022-07-18T12:39:29;7.28;;;1.40;;
31638;SDS011;18248;51.522;7.020;2022-07-18T12:42:30;5.97;;;2.25;;
31638;SDS011;18248;51.522;7.020;2022-07-18T12:45:33;5.20;;;1.88;;
31638;SDS011;18248;51.522;7.020;2022-07-18T12:48:33;8.75;;;2.03;;
31638;SDS011;18248;51.522;7.020;2022-07-18T12:51:32;10.75;;;1.98;;
31638;SDS011;18248;51.522;7.020;2022-07-18T12:54:32;7.32;;;1.95;;
31638;SDS011;18248;51.522;7.020;2022-07-18T12:57:30;12.73;;;1.98;;
31638;SDS011;18248;51.522;7.020;2022-07-18T13:00:29;5.05;;;1.67;;
31638;SDS011;18248;51.522;7.020;2022-07-18T13:03:28;6.95;;;1.88;;
31638;SDS011;18248;51.522;7.020;2022-07-18T13:06:27;4.45;;;1.50;;
31638;SDS011;18248;51.522;7.020;2022-07-18T13:09:27;10.13;;;1.70;;
31638;SDS011;18248;51.522;7.020;2022-07-18T13:12:25;4.68;;;1.52;;
31638;SDS011;18248;51.522;7.020;2022-07-18T13:15:24;7.18;;;1.70;;
31638;SDS011;18248;51.522;7.020;2022-07-18T13:18:22;3.67;;;1.60;;
31638;SDS011;18248;51.522;7.020;2022-07-18T13:21:21;8.80;;;1.90;;
31638;SDS011;18248;51.522;7.020;2022-07-18T13:24:19;5.90;;;1.58;;
31638;SDS011;18248;51.522;7.020;2022-07-18T13:27:18;5.60;;;1.70;;
31638;SDS011;18248;51.522;7.020;2022-07-18T13:30:17;9.73;;;1.58;;
31638;SDS011;18248;51.522;7.020;2022-07-18T13:33:16;5.88;;;1.50;;
31638;SDS011;18248;51.522;7.020;2022-07-18T13:36:15;4.25;;;1.60;;
31638;SDS011;18248;51.522;7.020;2022-07-18T13:39:13;9.32;;;1.77;;
31638;SDS011;18248;51.522;7.020;2022-07-18T13:42:12;5.25;;;1.45;;
31638;SDS011;18248;51.522;7.020;2022-07-18T13:45:10;4.60;;;1.77;;
31638;SDS011;18248;51.522;7.020;2022-07-18T13:48:11;6.00;;;1.90;;
31638;SDS011;18248;51.522;7.020;2022-07-18T13:51:10;4.88;;;1.90;;
31638;SDS011;18248;51.522;7.020;2022-07-18T13:54:08;8.68;;;1.75;;
31638;SDS011;18248;51.522;7.020;2022-07-18T13:57:07;6.03;;;1.80;;
31638;SDS011;18248;51.522;7.020;2022-07-18T14:00:07;6.53;;;1.60;;
31638;SDS011;18248;51.522;7.020;2022-07-18T14:03:08;4.82;;;1.42;;
31638;SDS011;18248;51.522;7.020;2022-07-18T14:06:06;5.35;;;1.40;;
31638;SDS011;18248;51.522;7.020;2022-07-18T14:09:05;9.10;;;1.83;;
31638;SDS011;18248;51.522;7.020;2022-07-18T14:12:04;3.42;;;1.45;;
31638;SDS011;18248;51.522;7.020;2022-07-18T14:15:03;9.35;;;1.75;;
31638;SDS011;18248;51.522;7.020;2022-07-18T14:18:02;5.03;;;1.50;;
31638;SDS011;18248;51.522;7.020;2022-07-18T14:21:03;8.00;;;1.63;;
31638;SDS011;18248;51.522;7.020;2022-07-18T14:24:01;7.40;;;1.70;;
31638;SDS011;18248;51.522;7.020;2022-07-18T14:27:00;6.25;;;1.83;;
31638;SDS011;18248;51.522;7.020;2022-07-18T14:29:59;4.80;;;1.50;;
31638;SDS011;18248;51.522;7.020;2022-07-18T14:32:58;8.68;;;1.75;;
31638;SDS011;18248;51.522;7.020;2022-07-18T14:35:56;9.70;;;1.60;;
31638;SDS011;18248;51.522;7.020;2022-07-18T14:38:55;7.13;;;2.08;;
31638;SDS011;18248;51.522;7.020;2022-07-18T14:41:54;5.07;;;1.85;;
31638;SDS011;18248;51.522;7.020;2022-07-18T14:44:53;7.53;;;1.80;;
31638;SDS011;18248;51.522;7.020;2022-07-18T14:47:51;5.68;;;1.67;;
31638;SDS011;18248;51.522;7.020;2022-07-18T14:50:50;7.53;;;1.90;;
31638;SDS011;18248;51.522;7.020;2022-07-18T14:53:48;7.70;;;1.90;;
31638;SDS011;18248;51.522;7.020;2022-07-18T14:56:47;10.95;;;1.90;;
31638;SDS011;18248;51.522;7.020;2022-07-18T14:59:45;8.25;;;1.73;;
31638;SDS011;18248;51.522;7.020;2022-07-18T15:02:45;6.78;;;1.83;;
31638;SDS011;18248;51.522;7.020;2022-07-18T15:05:44;7.18;;;2.20;;
31638;SDS011;18248;51.522;7.020;2022-07-18T15:08:42;6.45;;;1.52;;
31638;SDS011;18248;51.522;7.020;2022-07-18T15:11:41;7.13;;;1.83;;
31638;SDS011;18248;51.522;7.020;2022-07-18T15:14:40;6.50;;;1.48;;
31638;SDS011;18248;51.522;7.020;2022-07-18T15:17:39;5.07;;;1.30;;
31638;SDS011;18248;51.522;7.020;2022-07-18T15:20:40;7.07;;;2.03;;
31638;SDS011;18248;51.522;7.020;2022-07-18T15:23:39;10.05;;;1.48;;
31638;SDS011;18248;51.522;7.020;2022-07-18T15:26:38;5.35;;;1.42;;
31638;SDS011;18248;51.522;7.020;2022-07-18T15:29:37;4.78;;;1.65;;
31638;SDS011;18248;51.522;7.020;2022-07-18T15:32:35;4.03;;;1.48;;
31638;SDS011;18248;51.522;7.020;2022-07-18T15:35:34;11.32;;;1.80;;
31638;SDS011;18248;51.522;7.020;2022-07-18T15:38:32;5.15;;;2.00;;
31638;SDS011;18248;51.522;7.020;2022-07-18T15:41:31;4.93;;;1.58;;
31638;SDS011;18248;51.522;7.020;2022-07-18T15:44:30;6.07;;;1.42;;
31638;SDS011;18248;51.522;7.020;2022-07-18T15:47:35;8.57;;;1.88;;
31638;SDS011;18248;51.522;7.020;2022-07-18T15:50:33;6.30;;;1.63;;
31638;SDS011;18248;51.522;7.020;2022-07-18T15:53:32;5.63;;;1.55;;
31638;SDS011;18248;51.522;7.020;2022-07-18T15:56:30;4.35;;;1.48;;
31638;SDS011;18248;51.522;7.020;2022-07-18T15:59:29;5.82;;;1.67;;
31638;SDS011;18248;51.522;7.020;2022-07-18T16:02:28;9.05;;;1.83;;
31638;SDS011;18248;51.522;7.020;2022-07-18T16:05:26;9.18;;;1.70;;
31638;SDS011;18248;51.522;7.020;2022-07-18T16:08:26;6.93;;;1.60;;
31638;SDS011;18248;51.522;7.020;2022-07-18T16:11:25;3.67;;;1.42;;
31638;SDS011;18248;51.522;7.020;2022-07-18T16:14:23;5.95;;;1.30;;
31638;SDS011;18248;51.522;7.020;2022-07-18T16:17:22;4.82;;;1.40;;
31638;SDS011;18248;51.522;7.020;2022-07-18T16:20:21;5.95;;;1.42;;
31638;SDS011;18248;51.522;7.020;2022-07-18T16:23:19;4.82;;;1.20;;
31638;SDS011;18248;51.522;7.020;2022-07-18T16:26:18;4.05;;;1.25;;
31638;SDS011;18248;51.522;7.020;2022-07-18T16:29:16;4.45;;;1.40;;
31638;SDS011;18248;51.522;7.020;2022-07-18T16:32:15;6.97;;;1.60;;
31638;SDS011;18248;51.522;7.020;2022-07-18T16:35:14;5.22;;;1.25;;
31638;SDS011;18248;51.522;7.020;2022-07-18T16:38:12;9.80;;;1.67;;
31638;SDS011;18248;51.522;7.020;2022-07-18T16:41:11;4.00;;;1.55;;
31638;SDS011;18248;51.522;7.020;2022-07-18T16:44:10;5.35;;;1.70;;
31638;SDS011;18248;51.522;7.020;2022-07-18T16:47:09;3.67;;;1.40;;
31638;SDS011;18248;51.522;7.020;2022-07-18T16:50:08;5.05;;;1.50;;
31638;SDS011;18248;51.522;7.020;2022-07-18T16:53:10;4.78;;;1.85;;
31638;SDS011;18248;51.522;7.020;2022-07-18T16:56:10;8.27;;;1.40;;
31638;SDS011;18248;51.522;7.020;2022-07-18T16:59:09;4.97;;;1.30;;
31638;SDS011;18248;51.522;7.020;2022-07-18T17:02:08;4.30;;;1.40;;
31638;SDS011;18248;51.522;7.020;2022-07-18T17:05:07;5.68;;;1.58;;
31638;SDS011;18248;51.522;7.020;2022-07-18T17:08:06;7.55;;;1.60;;
31638;SDS011;18248;51.522;7.020;2022-07-18T17:11:06;7.97;;;1.75;;
31638;SDS011;18248;51.522;7.020;2022-07-18T17:14:05;7.35;;;1.90;;
31638;SDS011;18248;51.522;7.020;2022-07-18T17:17:03;8.02;;;1.73;;
31638;SDS011;18248;51.522;7.020;2022-07-18T17:20:03;6.55;;;1.40;;
31638;SDS011;18248;51.522;7.020;2022-07-18T17:23:11;6.50;;;1.52;;
31638;SDS011;18248;51.522;7.020;2022-07-18T17:26:10;5.75;;;1.42;;
31638;SDS011;18248;51.522;7.020;2022-07-18T17:29:09;5.07;;;1.80;;
31638;SDS011;18248;51.522;7.020;2022-07-18T17:32:09;10.27;;;1.85;;
31638;SDS011;18248;51.522;7.020;2022-07-18T17:35:09;9.35;;;1.58;;
31638;SDS011;18248;51.522;7.020;2022-07-18T17:38:09;3.97;;;1.77;;
31638;SDS011;18248;51.522;7.020;2022-07-18T17:41:09;8.90;;;1.52;;
31638;SDS011;18248;51.522;7.020;2022-07-18T17:44:08;8.77;;;1.90;;
31638;SDS011;18248;51.522;7.020;2022-07-18T17:47:07;4.40;;;1.30;;
31638;SDS011;18248;51.522;7.020;2022-07-18T17:50:07;5.90;;;1.40;;
31638;SDS011;18248;51.522;7.020;2022-07-18T17:53:10;7.72;;;1.52;;
31638;SDS011;18248;51.522;7.020;2022-07-18T17:56:10;4.30;;;1.17;;
31638;SDS011;18248;51.522;7.020;2022-07-18T18:02:11;7.88;;;1.58;;
31638;SDS011;18248;51.522;7.020;2022-07-18T18:05:11;6.90;;;1.50;;
31638;SDS011;18248;51.522;7.020;2022-07-18T18:08:09;5.65;;;1.27;;
31638;SDS011;18248;51.522;7.020;2022-07-18T18:11:08;5.47;;;1.50;;
31638;SDS011;18248;51.522;7.020;2022-07-18T18:14:07;5.93;;;1.67;;
31638;SDS011;18248;51.522;7.020;2022-07-18T18:17:05;9.32;;;1.70;;
31638;SDS011;18248;51.522;7.020;2022-07-18T18:20:04;8.88;;;2.35;;